sensor_id;sensor_type;location;lat;lon;timestamp;temperature;humidity
42261;DHT22;27926;48.062;7.474;2024-01-27T00:01:16;2.20;99.90
42261;DHT22;27926;48.062;7.474;2024-01-27T00:03:41;2.30;99.90
42261;DHT22;27926;48.062;7.474;2024-01-27T00:06:06;3.20;99.90
42261;DHT22;27926;48.062;7.474;2024-01-27T00:08:30;2.20;99.90
42261;DHT22;27926;48.062;7.474;2024-01-27T00:10:55;2.90;99.90
42261;DHT22;27926;48.062;7.474;2024-01-27T00:13:19;2.70;99.90
42261;DHT22;27926;48.062;7.474;2024-01-27T00:15:44;2.10;99.90
42261;DHT22;27926;48.062;7.474;2024-01-27T00:18:09;3.80;99.90
42261;DHT22;27926;48.062;7.474;2024-01-27T00:20:33;3.40;99.90
42261;DHT22;27926;48.062;7.474;2024-01-27T00:22:58;3.40;99.90
42261;DHT22;27926;48.062;7.474;2024-01-27T00:25:23;3.10;99.90
42261;DHT22;27926;48.062;7.474;2024-01-27T00:27:47;2.90;99.90
42261;DHT22;27926;48.062;7.474;2024-01-27T00:30:12;3.10;99.90
42261;DHT22;27926;48.062;7.474;2024-01-27T00:32:37;1.80;99.90
42261;DHT22;27926;48.062;7.474;2024-01-27T00:35:02;2.90;99.90
42261;DHT22;27926;48.062;7.474;2024-01-27T00:37:27;2.70;99.90
42261;DHT22;27926;48.062;7.474;2024-01-27T00:39:52;2.70;99.90
42261;DHT22;27926;48.062;7.474;2024-01-27T00:42:16;2.30;99.90
42261;DHT22;27926;48.062;7.474;2024-01-27T00:44:42;2.70;99.90
42261;DHT22;27926;48.062;7.474;2024-01-27T00:47:07;2.10;99.90
42261;DHT22;27926;48.062;7.474;2024-01-27T00:49:31;2.30;99.90
42261;DHT22;27926;48.062;7.474;2024-01-27T00:51:56;2.80;99.90
42261;DHT22;27926;48.062;7.474;2024-01-27T00:54:21;2.60;99.90
42261;DHT22;27926;48.062;7.474;2024-01-27T00:56:45;3.40;99.90
42261;DHT22;27926;48.062;7.474;2024-01-27T00:59:10;3.00;99.90
42261;DHT22;27926;48.062;7.474;2024-01-27T01:01:35;2.50;99.90
42261;DHT22;27926;48.062;7.474;2024-01-27T01:03:59;3.20;99.90
42261;DHT22;27926;48.062;7.474;2024-01-27T01:06:24;3.20;99.90
42261;DHT22;27926;48.062;7.474;2024-01-27T01:08:49;2.70;99.90
42261;DHT22;27926;48.062;7.474;2024-01-27T01:11:13;1.80;99.90
42261;DHT22;27926;48.062;7.474;2024-01-27T01:13:39;1.80;99.90
42261;DHT22;27926;48.062;7.474;2024-01-27T01:16:04;1.60;99.90
42261;DHT22;27926;48.062;7.474;2024-01-27T01:18:29;1.50;99.90
42261;DHT22;27926;48.062;7.474;2024-01-27T01:20:56;1.50;99.90
42261;DHT22;27926;48.062;7.474;2024-01-27T01:23:21;1.70;99.90
42261;DHT22;27926;48.062;7.474;2024-01-27T01:25:45;2.50;99.90
42261;DHT22;27926;48.062;7.474;2024-01-27T01:28:10;3.20;99.90
42261;DHT22;27926;48.062;7.474;2024-01-27T01:30:37;2.20;99.90
42261;DHT22;27926;48.062;7.474;2024-01-27T01:33:02;2.50;99.90
42261;DHT22;27926;48.062;7.474;2024-01-27T01:35:28;1.20;99.90
42261;DHT22;27926;48.062;7.474;2024-01-27T01:37:53;2.70;99.90
42261;DHT22;27926;48.062;7.474;2024-01-27T01:40:17;2.20;99.90
42261;DHT22;27926;48.062;7.474;2024-01-27T01:42:42;2.60;99.90
42261;DHT22;27926;48.062;7.474;2024-01-27T01:45:07;2.80;99.90
42261;DHT22;27926;48.062;7.474;2024-01-27T01:47:33;1.70;99.90
42261;DHT22;27926;48.062;7.474;2024-01-27T01:49:58;2.00;99.90
42261;DHT22;27926;48.062;7.474;2024-01-27T01:52:22;2.30;99.90
42261;DHT22;27926;48.062;7.474;2024-01-27T01:54:50;1.70;99.90
42261;DHT22;27926;48.062;7.474;2024-01-27T01:57:16;1.80;99.90
42261;DHT22;27926;48.062;7.474;2024-01-27T01:59:41;2.30;99.90
42261;DHT22;27926;48.062;7.474;2024-01-27T02:02:05;2.90;99.90
42261;DHT22;27926;48.062;7.474;2024-01-27T02:04:39;1.70;99.90
42261;DHT22;27926;48.062;7.474;2024-01-27T02:07:04;1.90;99.90
42261;DHT22;27926;48.062;7.474;2024-01-27T02:09:29;2.30;99.90
42261;DHT22;27926;48.062;7.474;2024-01-27T02:11:54;1.20;99.90
42261;DHT22;27926;48.062;7.474;2024-01-27T02:14:18;1.00;99.90
42261;DHT22;27926;48.062;7.474;2024-01-27T02:16:43;1.00;99.90
42261;DHT22;27926;48.062;7.474;2024-01-27T02:19:08;0.80;99.90
42261;DHT22;27926;48.062;7.474;2024-01-27T02:21:33;1.90;99.90
42261;DHT22;27926;48.062;7.474;2024-01-27T02:23:58;0.90;99.90
42261;DHT22;27926;48.062;7.474;2024-01-27T02:26:22;2.10;99.90
42261;DHT22;27926;48.062;7.474;2024-01-27T02:28:47;2.90;99.90
42261;DHT22;27926;48.062;7.474;2024-01-27T02:31:11;2.40;99.90
42261;DHT22;27926;48.062;7.474;2024-01-27T02:33:36;0.90;99.90
42261;DHT22;27926;48.062;7.474;2024-01-27T02:36:01;2.70;99.90
42261;DHT22;27926;48.062;7.474;2024-01-27T02:38:25;2.50;99.90
42261;DHT22;27926;48.062;7.474;2024-01-27T02:40:50;1.70;99.90
42261;DHT22;27926;48.062;7.474;2024-01-27T02:43:14;2.80;99.90
42261;DHT22;27926;48.062;7.474;2024-01-27T02:45:39;2.00;99.90
42261;DHT22;27926;48.062;7.474;2024-01-27T02:48:04;0.80;99.90
42261;DHT22;27926;48.062;7.474;2024-01-27T02:50:29;0.80;99.90
42261;DHT22;27926;48.062;7.474;2024-01-27T02:52:53;1.20;99.90
42261;DHT22;27926;48.062;7.474;2024-01-27T02:55:18;2.20;99.90
42261;DHT22;27926;48.062;7.474;2024-01-27T02:57:43;0.80;99.90
42261;DHT22;27926;48.062;7.474;2024-01-27T03:00:08;2.50;99.90
42261;DHT22;27926;48.062;7.474;2024-01-27T03:02:32;0.80;99.90
42261;DHT22;27926;48.062;7.474;2024-01-27T03:04:57;2.80;99.90
42261;DHT22;27926;48.062;7.474;2024-01-27T03:07:22;2.60;99.90
42261;DHT22;27926;48.062;7.474;2024-01-27T03:09:46;2.80;99.90
42261;DHT22;27926;48.062;7.474;2024-01-27T03:12:11;0.70;99.90
42261;DHT22;27926;48.062;7.474;2024-01-27T03:14:36;0.80;99.90
42261;DHT22;27926;48.062;7.474;2024-01-27T03:17:00;1.90;99.90
42261;DHT22;27926;48.062;7.474;2024-01-27T03:19:25;0.60;99.90
42261;DHT22;27926;48.062;7.474;2024-01-27T03:21:49;2.10;99.90
42261;DHT22;27926;48.062;7.474;2024-01-27T03:24:14;1.30;99.90
42261;DHT22;27926;48.062;7.474;2024-01-27T03:26:39;2.00;99.90
42261;DHT22;27926;48.062;7.474;2024-01-27T03:29:06;0.50;99.90
42261;DHT22;27926;48.062;7.474;2024-01-27T03:31:32;0.40;99.90
42261;DHT22;27926;48.062;7.474;2024-01-27T03:34:01;0.50;99.90
42261;DHT22;27926;48.062;7.474;2024-01-27T03:36:27;0.50;99.90
42261;DHT22;27926;48.062;7.474;2024-01-27T03:38:52;1.80;99.90
42261;DHT22;27926;48.062;7.474;2024-01-27T03:41:16;2.40;99.90
42261;DHT22;27926;48.062;7.474;2024-01-27T03:43:41;1.80;99.90
42261;DHT22;27926;48.062;7.474;2024-01-27T03:46:06;1.40;99.90
42261;DHT22;27926;48.062;7.474;2024-01-27T03:48:30;1.60;99.90
42261;DHT22;27926;48.062;7.474;2024-01-27T03:50:55;2.50;99.90
42261;DHT22;27926;48.062;7.474;2024-01-27T03:53:20;2.40;99.90
42261;DHT22;27926;48.062;7.474;2024-01-27T03:55:44;0.50;99.90
42261;DHT22;27926;48.062;7.474;2024-01-27T03:58:09;1.80;99.90
42261;DHT22;27926;48.062;7.474;2024-01-27T04:00:34;2.10;99.90
42261;DHT22;27926;48.062;7.474;2024-01-27T04:03:02;1.80;99.90
42261;DHT22;27926;48.062;7.474;2024-01-27T04:05:29;0.60;99.90
42261;DHT22;27926;48.062;7.474;2024-01-27T04:07:54;1.70;99.90
42261;DHT22;27926;48.062;7.474;2024-01-27T04:10:18;1.10;99.90
42261;DHT22;27926;48.062;7.474;2024-01-27T04:12:44;0.60;99.90
42261;DHT22;27926;48.062;7.474;2024-01-27T04:15:09;2.00;99.90
42261;DHT22;27926;48.062;7.474;2024-01-27T04:17:34;1.40;99.90
42261;DHT22;27926;48.062;7.474;2024-01-27T04:19:59;1.50;99.90
42261;DHT22;27926;48.062;7.474;2024-01-27T04:22:24;2.10;99.90
42261;DHT22;27926;48.062;7.474;2024-01-27T04:24:48;2.30;99.90
42261;DHT22;27926;48.062;7.474;2024-01-27T04:27:13;0.80;99.90
42261;DHT22;27926;48.062;7.474;2024-01-27T04:29:38;1.80;99.90
42261;DHT22;27926;48.062;7.474;2024-01-27T04:32:03;2.30;99.90
42261;DHT22;27926;48.062;7.474;2024-01-27T04:34:28;0.70;99.90
42261;DHT22;27926;48.062;7.474;2024-01-27T04:36:52;0.70;99.90
42261;DHT22;27926;48.062;7.474;2024-01-27T04:39:17;0.80;99.90
42261;DHT22;27926;48.062;7.474;2024-01-27T04:41:42;2.80;99.90
42261;DHT22;27926;48.062;7.474;2024-01-27T04:44:08;2.80;99.90
42261;DHT22;27926;48.062;7.474;2024-01-27T04:46:32;1.40;99.90
42261;DHT22;27926;48.062;7.474;2024-01-27T04:48:58;0.80;99.90
42261;DHT22;27926;48.062;7.474;2024-01-27T04:51:23;0.80;99.90
42261;DHT22;27926;48.062;7.474;2024-01-27T04:53:47;2.70;99.90
42261;DHT22;27926;48.062;7.474;2024-01-27T04:56:12;0.80;99.90
42261;DHT22;27926;48.062;7.474;2024-01-27T04:58:37;0.80;99.90
42261;DHT22;27926;48.062;7.474;2024-01-27T05:01:02;2.90;99.90
42261;DHT22;27926;48.062;7.474;2024-01-27T05:03:27;0.90;99.90
42261;DHT22;27926;48.062;7.474;2024-01-27T05:05:52;2.70;99.90
42261;DHT22;27926;48.062;7.474;2024-01-27T05:08:17;2.10;99.90
42261;DHT22;27926;48.062;7.474;2024-01-27T05:10:41;1.00;99.90
42261;DHT22;27926;48.062;7.474;2024-01-27T05:13:06;2.70;99.90
42261;DHT22;27926;48.062;7.474;2024-01-27T05:15:31;1.00;99.90
42261;DHT22;27926;48.062;7.474;2024-01-27T05:17:55;2.60;99.90
42261;DHT22;27926;48.062;7.474;2024-01-27T05:20:20;2.70;99.90
42261;DHT22;27926;48.062;7.474;2024-01-27T05:22:45;2.70;99.90
42261;DHT22;27926;48.062;7.474;2024-01-27T05:25:10;3.10;99.90
42261;DHT22;27926;48.062;7.474;2024-01-27T05:27:37;2.50;99.90
42261;DHT22;27926;48.062;7.474;2024-01-27T05:30:03;2.60;99.90
42261;DHT22;27926;48.062;7.474;2024-01-27T05:32:27;1.10;99.90
42261;DHT22;27926;48.062;7.474;2024-01-27T05:34:52;2.50;99.90
42261;DHT22;27926;48.062;7.474;2024-01-27T05:37:17;2.40;99.90
42261;DHT22;27926;48.062;7.474;2024-01-27T05:39:41;2.30;99.90
42261;DHT22;27926;48.062;7.474;2024-01-27T05:42:06;3.00;99.90
42261;DHT22;27926;48.062;7.474;2024-01-27T05:44:31;2.30;99.90
42261;DHT22;27926;48.062;7.474;2024-01-27T05:46:55;2.40;99.90
42261;DHT22;27926;48.062;7.474;2024-01-27T05:49:20;2.10;99.90
42261;DHT22;27926;48.062;7.474;2024-01-27T05:51:45;2.10;99.90
42261;DHT22;27926;48.062;7.474;2024-01-27T05:54:09;2.50;99.90
42261;DHT22;27926;48.062;7.474;2024-01-27T05:56:34;2.80;99.90
42261;DHT22;27926;48.062;7.474;2024-01-27T05:59:00;0.90;99.90
42261;DHT22;27926;48.062;7.474;2024-01-27T06:01:25;0.90;99.90
42261;DHT22;27926;48.062;7.474;2024-01-27T06:03:50;1.70;99.90
42261;DHT22;27926;48.062;7.474;2024-01-27T06:06:14;2.50;99.90
42261;DHT22;27926;48.062;7.474;2024-01-27T06:08:39;2.20;99.90
42261;DHT22;27926;48.062;7.474;2024-01-27T06:11:05;0.90;99.90
42261;DHT22;27926;48.062;7.474;2024-01-27T06:13:29;2.60;99.90
42261;DHT22;27926;48.062;7.474;2024-01-27T06:15:54;0.90;99.90
42261;DHT22;27926;48.062;7.474;2024-01-27T06:18:19;2.60;99.90
42261;DHT22;27926;48.062;7.474;2024-01-27T06:20:44;2.10;99.90
42261;DHT22;27926;48.062;7.474;2024-01-27T06:23:09;0.80;99.90
42261;DHT22;27926;48.062;7.474;2024-01-27T06:25:33;2.80;99.90
42261;DHT22;27926;48.062;7.474;2024-01-27T06:27:58;0.90;99.90
42261;DHT22;27926;48.062;7.474;2024-01-27T06:30:23;1.90;99.90
42261;DHT22;27926;48.062;7.474;2024-01-27T06:32:47;2.40;99.90
42261;DHT22;27926;48.062;7.474;2024-01-27T06:35:12;1.70;99.90
42261;DHT22;27926;48.062;7.474;2024-01-27T06:37:37;0.90;99.90
42261;DHT22;27926;48.062;7.474;2024-01-27T06:40:02;1.30;99.90
42261;DHT22;27926;48.062;7.474;2024-01-27T06:42:27;0.80;99.90
42261;DHT22;27926;48.062;7.474;2024-01-27T06:44:52;2.70;99.90
42261;DHT22;27926;48.062;7.474;2024-01-27T06:47:16;0.80;99.90
42261;DHT22;27926;48.062;7.474;2024-01-27T06:49:41;0.70;99.90
42261;DHT22;27926;48.062;7.474;2024-01-27T06:52:06;0.70;99.90
42261;DHT22;27926;48.062;7.474;2024-01-27T06:54:30;0.60;99.90
42261;DHT22;27926;48.062;7.474;2024-01-27T06:56:55;0.50;99.90
42261;DHT22;27926;48.062;7.474;2024-01-27T06:59:19;0.90;99.90
42261;DHT22;27926;48.062;7.474;2024-01-27T07:01:48;0.20;99.90
42261;DHT22;27926;48.062;7.474;2024-01-27T07:04:12;1.00;99.90
42261;DHT22;27926;48.062;7.474;2024-01-27T07:06:37;1.20;99.90
42261;DHT22;27926;48.062;7.474;2024-01-27T07:09:02;1.50;99.90
42261;DHT22;27926;48.062;7.474;2024-01-27T07:11:26;0.10;99.90
42261;DHT22;27926;48.062;7.474;2024-01-27T07:13:51;0.10;99.90
42261;DHT22;27926;48.062;7.474;2024-01-27T07:16:15;0.10;99.90
42261;DHT22;27926;48.062;7.474;2024-01-27T07:18:40;0.20;99.90
42261;DHT22;27926;48.062;7.474;2024-01-27T07:21:05;0.20;99.90
42261;DHT22;27926;48.062;7.474;2024-01-27T07:23:29;0.30;99.90
42261;DHT22;27926;48.062;7.474;2024-01-27T07:25:54;0.40;99.90
42261;DHT22;27926;48.062;7.474;2024-01-27T07:28:18;0.50;99.90
42261;DHT22;27926;48.062;7.474;2024-01-27T07:30:43;0.60;99.90
42261;DHT22;27926;48.062;7.474;2024-01-27T07:33:08;0.60;99.90
42261;DHT22;27926;48.062;7.474;2024-01-27T07:35:32;2.40;99.90
42261;DHT22;27926;48.062;7.474;2024-01-27T07:37:57;2.10;99.90
42261;DHT22;27926;48.062;7.474;2024-01-27T07:40:22;2.10;99.90
42261;DHT22;27926;48.062;7.474;2024-01-27T07:42:46;2.40;99.90
42261;DHT22;27926;48.062;7.474;2024-01-27T07:45:14;0.60;99.90
42261;DHT22;27926;48.062;7.474;2024-01-27T07:47:40;0.60;99.90
42261;DHT22;27926;48.062;7.474;2024-01-27T07:50:06;2.60;99.90
42261;DHT22;27926;48.062;7.474;2024-01-27T07:52:31;0.60;99.90
42261;DHT22;27926;48.062;7.474;2024-01-27T07:54:56;1.60;99.90
42261;DHT22;27926;48.062;7.474;2024-01-27T07:57:23;1.10;99.90
42261;DHT22;27926;48.062;7.474;2024-01-27T07:59:48;0.70;99.90
42261;DHT22;27926;48.062;7.474;2024-01-27T08:02:13;2.50;99.90
42261;DHT22;27926;48.062;7.474;2024-01-27T08:04:38;0.90;99.90
42261;DHT22;27926;48.062;7.474;2024-01-27T08:07:03;2.50;99.90
42261;DHT22;27926;48.062;7.474;2024-01-27T08:09:34;1.10;99.90
42261;DHT22;27926;48.062;7.474;2024-01-27T08:11:58;1.90;99.90
42261;DHT22;27926;48.062;7.474;2024-01-27T08:14:23;1.20;99.90
42261;DHT22;27926;48.062;7.474;2024-01-27T08:16:48;2.90;99.90
42261;DHT22;27926;48.062;7.474;2024-01-27T08:19:13;1.40;99.90
42261;DHT22;27926;48.062;7.474;2024-01-27T08:21:38;2.90;99.90
42261;DHT22;27926;48.062;7.474;2024-01-27T08:24:03;3.30;99.90
42261;DHT22;27926;48.062;7.474;2024-01-27T08:26:28;1.80;99.90
42261;DHT22;27926;48.062;7.474;2024-01-27T08:28:52;3.10;99.90
42261;DHT22;27926;48.062;7.474;2024-01-27T08:31:20;3.50;99.90
42261;DHT22;27926;48.062;7.474;2024-01-27T08:33:44;2.90;99.90
42261;DHT22;27926;48.062;7.474;2024-01-27T08:36:16;2.80;99.90
42261;DHT22;27926;48.062;7.474;2024-01-27T08:38:43;2.40;99.90
42261;DHT22;27926;48.062;7.474;2024-01-27T08:41:08;3.30;99.90
42261;DHT22;27926;48.062;7.474;2024-01-27T08:43:33;3.50;99.90
42261;DHT22;27926;48.062;7.474;2024-01-27T08:45:58;2.70;99.90
42261;DHT22;27926;48.062;7.474;2024-01-27T08:48:24;3.00;99.90
42261;DHT22;27926;48.062;7.474;2024-01-27T08:50:49;3.50;99.90
42261;DHT22;27926;48.062;7.474;2024-01-27T08:53:14;4.10;99.90
42261;DHT22;27926;48.062;7.474;2024-01-27T08:55:38;3.10;99.90
42261;DHT22;27926;48.062;7.474;2024-01-27T08:58:03;3.40;99.90
42261;DHT22;27926;48.062;7.474;2024-01-27T09:00:28;3.20;99.90
42261;DHT22;27926;48.062;7.474;2024-01-27T09:02:52;3.30;99.90
42261;DHT22;27926;48.062;7.474;2024-01-27T09:05:17;3.70;99.90
42261;DHT22;27926;48.062;7.474;2024-01-27T09:07:42;3.60;99.90
42261;DHT22;27926;48.062;7.474;2024-01-27T09:10:07;4.40;99.90
42261;DHT22;27926;48.062;7.474;2024-01-27T09:12:32;3.80;99.90
42261;DHT22;27926;48.062;7.474;2024-01-27T09:14:57;4.50;99.90
42261;DHT22;27926;48.062;7.474;2024-01-27T09:17:22;3.90;99.90
42261;DHT22;27926;48.062;7.474;2024-01-27T09:19:46;3.90;99.90
42261;DHT22;27926;48.062;7.474;2024-01-27T09:22:11;4.10;99.90
42261;DHT22;27926;48.062;7.474;2024-01-27T09:24:36;4.40;99.90
42261;DHT22;27926;48.062;7.474;2024-01-27T09:27:00;4.10;99.90
42261;DHT22;27926;48.062;7.474;2024-01-27T09:29:26;4.10;99.90
42261;DHT22;27926;48.062;7.474;2024-01-27T09:31:50;4.10;99.90
42261;DHT22;27926;48.062;7.474;2024-01-27T09:34:15;4.90;99.90
42261;DHT22;27926;48.062;7.474;2024-01-27T09:36:40;4.60;99.90
42261;DHT22;27926;48.062;7.474;2024-01-27T09:39:04;4.80;99.90
42261;DHT22;27926;48.062;7.474;2024-01-27T09:41:32;4.70;99.90
42261;DHT22;27926;48.062;7.474;2024-01-27T09:44:02;4.10;99.90
42261;DHT22;27926;48.062;7.474;2024-01-27T09:46:29;4.20;99.90
42261;DHT22;27926;48.062;7.474;2024-01-27T09:48:54;4.40;99.90
42261;DHT22;27926;48.062;7.474;2024-01-27T09:51:19;4.90;99.90
42261;DHT22;27926;48.062;7.474;2024-01-27T09:53:44;4.20;99.90
42261;DHT22;27926;48.062;7.474;2024-01-27T09:56:09;4.30;99.90
42261;DHT22;27926;48.062;7.474;2024-01-27T09:58:34;4.40;99.90
42261;DHT22;27926;48.062;7.474;2024-01-27T10:01:00;4.70;99.90
42261;DHT22;27926;48.062;7.474;2024-01-27T10:03:26;4.80;99.90
42261;DHT22;27926;48.062;7.474;2024-01-27T10:05:55;4.80;99.90
42261;DHT22;27926;48.062;7.474;2024-01-27T10:08:21;4.60;99.90
42261;DHT22;27926;48.062;7.474;2024-01-27T10:10:46;4.70;99.90
42261;DHT22;27926;48.062;7.474;2024-01-27T10:13:13;4.60;99.90
42261;DHT22;27926;48.062;7.474;2024-01-27T10:15:38;4.60;99.90
42261;DHT22;27926;48.062;7.474;2024-01-27T10:18:07;6.20;99.90
42261;DHT22;27926;48.062;7.474;2024-01-27T10:20:32;4.70;99.90
42261;DHT22;27926;48.062;7.474;2024-01-27T10:22:56;4.70;99.90
42261;DHT22;27926;48.062;7.474;2024-01-27T10:25:21;4.80;99.90
42261;DHT22;27926;48.062;7.474;2024-01-27T10:27:45;5.40;99.90
42261;DHT22;27926;48.062;7.474;2024-01-27T10:30:15;5.70;99.90
42261;DHT22;27926;48.062;7.474;2024-01-27T10:32:40;4.80;99.90
42261;DHT22;27926;48.062;7.474;2024-01-27T10:35:08;5.40;99.90
42261;DHT22;27926;48.062;7.474;2024-01-27T10:37:32;4.80;99.90
42261;DHT22;27926;48.062;7.474;2024-01-27T10:40:01;4.80;99.90
42261;DHT22;27926;48.062;7.474;2024-01-27T10:42:28;4.80;99.90
42261;DHT22;27926;48.062;7.474;2024-01-27T10:44:57;4.90;99.90
42261;DHT22;27926;48.062;7.474;2024-01-27T10:47:22;5.00;99.90
42261;DHT22;27926;48.062;7.474;2024-01-27T10:49:48;5.00;99.90
42261;DHT22;27926;48.062;7.474;2024-01-27T10:52:14;5.50;99.90
42261;DHT22;27926;48.062;7.474;2024-01-27T10:54:43;5.60;99.90
42261;DHT22;27926;48.062;7.474;2024-01-27T10:57:08;5.20;99.90
42261;DHT22;27926;48.062;7.474;2024-01-27T10:59:35;5.20;99.90
42261;DHT22;27926;48.062;7.474;2024-01-27T11:01:59;5.30;99.90
42261;DHT22;27926;48.062;7.474;2024-01-27T11:04:25;5.30;99.90
42261;DHT22;27926;48.062;7.474;2024-01-27T11:06:50;5.70;99.90
42261;DHT22;27926;48.062;7.474;2024-01-27T11:09:15;6.00;99.90
42261;DHT22;27926;48.062;7.474;2024-01-27T11:11:41;5.50;99.90
42261;DHT22;27926;48.062;7.474;2024-01-27T11:14:06;5.70;99.90
42261;DHT22;27926;48.062;7.474;2024-01-27T11:16:31;5.60;99.90
42261;DHT22;27926;48.062;7.474;2024-01-27T11:18:56;5.80;99.90
42261;DHT22;27926;48.062;7.474;2024-01-27T11:21:21;5.70;99.90
42261;DHT22;27926;48.062;7.474;2024-01-27T11:23:45;5.70;99.90
42261;DHT22;27926;48.062;7.474;2024-01-27T11:26:20;5.80;99.90
42261;DHT22;27926;48.062;7.474;2024-01-27T11:28:46;5.80;99.90
42261;DHT22;27926;48.062;7.474;2024-01-27T11:31:10;5.80;99.90
42261;DHT22;27926;48.062;7.474;2024-01-27T11:33:43;5.90;99.90
42261;DHT22;27926;48.062;7.474;2024-01-27T11:36:08;6.00;99.90
42261;DHT22;27926;48.062;7.474;2024-01-27T11:38:32;6.00;99.90
42261;DHT22;27926;48.062;7.474;2024-01-27T11:40:59;6.10;99.90
42261;DHT22;27926;48.062;7.474;2024-01-27T11:43:24;6.20;99.90
42261;DHT22;27926;48.062;7.474;2024-01-27T11:45:58;6.20;99.90
42261;DHT22;27926;48.062;7.474;2024-01-27T11:48:23;6.20;99.90
42261;DHT22;27926;48.062;7.474;2024-01-27T11:50:48;6.30;99.90
42261;DHT22;27926;48.062;7.474;2024-01-27T11:53:13;6.30;99.90
42261;DHT22;27926;48.062;7.474;2024-01-27T11:55:37;6.50;99.90
42261;DHT22;27926;48.062;7.474;2024-01-27T11:58:02;6.40;99.90
42261;DHT22;27926;48.062;7.474;2024-01-27T12:00:27;6.40;99.90
42261;DHT22;27926;48.062;7.474;2024-01-27T12:02:51;6.40;99.90
42261;DHT22;27926;48.062;7.474;2024-01-27T12:05:16;6.50;99.90
42261;DHT22;27926;48.062;7.474;2024-01-27T12:07:41;6.60;99.90
42261;DHT22;27926;48.062;7.474;2024-01-27T12:10:05;6.70;99.90
42261;DHT22;27926;48.062;7.474;2024-01-27T12:12:31;6.70;99.90
42261;DHT22;27926;48.062;7.474;2024-01-27T12:14:56;6.70;99.90
42261;DHT22;27926;48.062;7.474;2024-01-27T12:17:22;6.70;99.90
42261;DHT22;27926;48.062;7.474;2024-01-27T12:19:50;6.70;99.90
42261;DHT22;27926;48.062;7.474;2024-01-27T12:22:35;6.80;99.90
42261;DHT22;27926;48.062;7.474;2024-01-27T12:25:11;6.80;99.90
42261;DHT22;27926;48.062;7.474;2024-01-27T12:27:39;6.80;99.90
42261;DHT22;27926;48.062;7.474;2024-01-27T12:30:04;6.80;99.90
42261;DHT22;27926;48.062;7.474;2024-01-27T12:32:29;6.80;99.90
42261;DHT22;27926;48.062;7.474;2024-01-27T12:34:55;6.80;99.90
42261;DHT22;27926;48.062;7.474;2024-01-27T12:37:21;6.90;99.90
42261;DHT22;27926;48.062;7.474;2024-01-27T12:39:46;7.00;99.90
42261;DHT22;27926;48.062;7.474;2024-01-27T12:42:11;7.00;99.90
42261;DHT22;27926;48.062;7.474;2024-01-27T12:44:36;7.00;99.90
42261;DHT22;27926;48.062;7.474;2024-01-27T12:47:00;7.00;99.90
42261;DHT22;27926;48.062;7.474;2024-01-27T12:49:25;7.00;99.90
42261;DHT22;27926;48.062;7.474;2024-01-27T12:51:50;7.10;99.90
42261;DHT22;27926;48.062;7.474;2024-01-27T12:54:16;7.00;99.90
42261;DHT22;27926;48.062;7.474;2024-01-27T12:56:40;7.10;99.90
42261;DHT22;27926;48.062;7.474;2024-01-27T12:59:05;7.10;99.90
42261;DHT22;27926;48.062;7.474;2024-01-27T13:01:30;7.10;99.90
42261;DHT22;27926;48.062;7.474;2024-01-27T13:03:55;7.10;99.90
42261;DHT22;27926;48.062;7.474;2024-01-27T13:06:20;7.20;99.90
42261;DHT22;27926;48.062;7.474;2024-01-27T13:08:44;7.20;99.90
42261;DHT22;27926;48.062;7.474;2024-01-27T13:11:09;7.20;99.90
42261;DHT22;27926;48.062;7.474;2024-01-27T13:13:34;7.30;99.90
42261;DHT22;27926;48.062;7.474;2024-01-27T13:15:59;7.30;99.90
42261;DHT22;27926;48.062;7.474;2024-01-27T13:18:23;7.40;99.90
42261;DHT22;27926;48.062;7.474;2024-01-27T13:20:48;7.40;99.90
42261;DHT22;27926;48.062;7.474;2024-01-27T13:23:13;7.40;99.90
42261;DHT22;27926;48.062;7.474;2024-01-27T13:25:37;7.40;99.90
42261;DHT22;27926;48.062;7.474;2024-01-27T13:28:02;7.40;99.90
42261;DHT22;27926;48.062;7.474;2024-01-27T13:30:27;7.40;99.90
42261;DHT22;27926;48.062;7.474;2024-01-27T13:32:53;7.40;99.90
42261;DHT22;27926;48.062;7.474;2024-01-27T13:35:20;7.40;99.90
42261;DHT22;27926;48.062;7.474;2024-01-27T13:37:45;8.40;99.90
42261;DHT22;27926;48.062;7.474;2024-01-27T13:40:10;7.50;99.90
42261;DHT22;27926;48.062;7.474;2024-01-27T13:42:36;7.50;99.90
42261;DHT22;27926;48.062;7.474;2024-01-27T13:45:01;7.50;99.90
42261;DHT22;27926;48.062;7.474;2024-01-27T13:47:25;7.60;99.90
42261;DHT22;27926;48.062;7.474;2024-01-27T13:49:50;7.60;99.90
42261;DHT22;27926;48.062;7.474;2024-01-27T13:52:15;7.60;99.90
42261;DHT22;27926;48.062;7.474;2024-01-27T13:54:39;7.70;99.90
42261;DHT22;27926;48.062;7.474;2024-01-27T13:57:05;7.70;99.90
42261;DHT22;27926;48.062;7.474;2024-01-27T13:59:30;7.70;99.90
42261;DHT22;27926;48.062;7.474;2024-01-27T14:01:55;7.70;99.90
42261;DHT22;27926;48.062;7.474;2024-01-27T14:04:21;7.70;99.90
42261;DHT22;27926;48.062;7.474;2024-01-27T14:06:46;7.70;99.90
42261;DHT22;27926;48.062;7.474;2024-01-27T14:09:10;7.60;99.90
42261;DHT22;27926;48.062;7.474;2024-01-27T14:11:35;7.60;99.90
42261;DHT22;27926;48.062;7.474;2024-01-27T14:14:00;7.60;99.90
42261;DHT22;27926;48.062;7.474;2024-01-27T14:16:24;7.60;99.90
42261;DHT22;27926;48.062;7.474;2024-01-27T14:18:49;7.60;99.90
42261;DHT22;27926;48.062;7.474;2024-01-27T14:21:14;7.60;99.90
42261;DHT22;27926;48.062;7.474;2024-01-27T14:23:39;7.60;99.90
42261;DHT22;27926;48.062;7.474;2024-01-27T14:26:04;7.60;99.90
42261;DHT22;27926;48.062;7.474;2024-01-27T14:28:28;7.70;99.90
42261;DHT22;27926;48.062;7.474;2024-01-27T14:30:53;7.70;99.90
42261;DHT22;27926;48.062;7.474;2024-01-27T14:33:18;7.80;99.90
42261;DHT22;27926;48.062;7.474;2024-01-27T14:35:45;7.80;99.90
42261;DHT22;27926;48.062;7.474;2024-01-27T14:38:10;7.80;99.90
42261;DHT22;27926;48.062;7.474;2024-01-27T14:40:34;7.70;99.90
42261;DHT22;27926;48.062;7.474;2024-01-27T14:43:01;7.70;99.90
42261;DHT22;27926;48.062;7.474;2024-01-27T14:45:32;7.70;99.90
42261;DHT22;27926;48.062;7.474;2024-01-27T14:47:57;7.70;99.90
42261;DHT22;27926;48.062;7.474;2024-01-27T14:50:21;7.60;99.90
42261;DHT22;27926;48.062;7.474;2024-01-27T14:52:46;7.70;99.90
42261;DHT22;27926;48.062;7.474;2024-01-27T14:55:11;7.60;99.90
42261;DHT22;27926;48.062;7.474;2024-01-27T14:57:38;7.60;99.90
42261;DHT22;27926;48.062;7.474;2024-01-27T15:00:03;7.60;99.90
42261;DHT22;27926;48.062;7.474;2024-01-27T15:02:29;7.60;99.90
42261;DHT22;27926;48.062;7.474;2024-01-27T15:04:54;7.50;99.90
42261;DHT22;27926;48.062;7.474;2024-01-27T15:07:18;7.50;99.90
42261;DHT22;27926;48.062;7.474;2024-01-27T15:09:43;7.50;99.90
42261;DHT22;27926;48.062;7.474;2024-01-27T15:12:07;7.50;99.90
42261;DHT22;27926;48.062;7.474;2024-01-27T15:14:32;7.50;99.90
42261;DHT22;27926;48.062;7.474;2024-01-27T15:16:57;7.50;99.90
42261;DHT22;27926;48.062;7.474;2024-01-27T15:19:21;7.60;99.90
42261;DHT22;27926;48.062;7.474;2024-01-27T15:21:46;7.60;99.90
42261;DHT22;27926;48.062;7.474;2024-01-27T15:24:11;7.60;99.90
42261;DHT22;27926;48.062;7.474;2024-01-27T15:26:36;7.60;99.90
42261;DHT22;27926;48.062;7.474;2024-01-27T15:29:01;7.60;99.90
42261;DHT22;27926;48.062;7.474;2024-01-27T15:31:25;7.60;99.90